createdAt,value
2019-05-09T00:01:03.964Z,98468.33
2019-05-09T00:03:33.598Z,98471.34
2019-05-09T00:06:04.642Z,98472.29
2019-05-09T00:08:33.627Z,98475.30
2019-05-09T00:11:03.679Z,98476.71
2019-05-09T00:13:34.153Z,98473.72
2019-05-09T00:16:03.808Z,98471.59
2019-05-09T00:18:33.719Z,98476.36
2019-05-09T00:21:13.326Z,98476.36
2019-05-09T00:23:43.714Z,98472.41
2019-05-09T00:26:13.536Z,98479.01
2019-05-09T00:28:45.675Z,98472.41
2019-05-09T00:31:27.175Z,98480.73
2019-05-09T00:33:59.065Z,98485.62
2019-05-09T00:36:28.165Z,98486.53
2019-05-09T00:38:57.275Z,98487.86
2019-05-09T00:41:26.386Z,98494.11
2019-05-09T00:44:03.375Z,98495.84
2019-05-09T00:46:43.111Z,98494.58
2019-05-09T00:49:16.926Z,98495.48
2019-05-09T00:51:46.043Z,98489.86
2019-05-09T00:54:15.197Z,98498.24
2019-05-09T00:56:44.309Z,98492.50
2019-05-09T00:59:13.646Z,98488.19
2019-05-09T01:01:43.665Z,98497.55
2019-05-09T01:04:13.628Z,98497.60
2019-05-09T01:06:43.495Z,98501.16
2019-05-09T01:09:13.675Z,98494.55
2019-05-09T01:11:43.958Z,98496.37
2019-05-09T01:14:14.216Z,98498.61
2019-05-09T01:16:44.148Z,98504.80
2019-05-09T01:19:14.192Z,98503.14
2019-05-09T01:21:43.958Z,98502.78
2019-05-09T01:24:14.410Z,98501.06
2019-05-09T01:26:43.696Z,98504.11
2019-05-09T01:29:13.748Z,98501.63
2019-05-09T01:31:43.716Z,98505.23
2019-05-09T01:34:25.583Z,98499.14
2019-05-09T01:37:07.724Z,98496.10
2019-05-09T01:39:37.451Z,98504.48
2019-05-09T01:42:07.082Z,98504.63
2019-05-09T01:44:36.204Z,98509.55
2019-05-09T01:47:05.327Z,98512.25
2019-05-09T01:49:34.491Z,98517.98
2019-05-09T01:52:03.812Z,98507.02
2019-05-09T01:54:34.597Z,98509.30
2019-05-09T01:57:03.704Z,98510.78
2019-05-09T01:59:33.899Z,98505.96
2019-05-09T02:02:08.287Z,98504.23
2019-05-09T02:04:34.900Z,98502.45
2019-05-09T02:07:04.431Z,98499.87
2019-05-09T02:09:34.446Z,98501.38
2019-05-09T02:12:04.164Z,98502.30
2019-05-09T02:14:58.272Z,98499.25
2019-05-09T02:18:01.309Z,98501.13
2019-05-09T02:20:26.290Z,98501.19
2019-05-09T02:22:55.423Z,98504.38
2019-05-09T02:25:24.556Z,98500.88
2019-05-09T02:27:55.226Z,98506.77
2019-05-09T02:30:25.459Z,98509.55
2019-05-09T02:32:54.913Z,98507.00
2019-05-09T02:35:24.052Z,98505.73
2019-05-09T02:37:53.196Z,98507.05
2019-05-09T02:40:22.321Z,98507.56
2019-05-09T02:42:51.422Z,98506.24
2019-05-09T02:45:21.241Z,98505.78
2019-05-09T02:47:50.344Z,98508.94
2019-05-09T02:50:19.823Z,98511.98
2019-05-09T02:52:49.023Z,98517.31
2019-05-09T02:55:18.650Z,98517.36
2019-05-09T02:57:49.469Z,98519.19
2019-05-09T03:00:28.876Z,98524.97
2019-05-09T03:03:19.553Z,98524.66
2019-05-09T03:05:48.753Z,98532.17
2019-05-09T03:08:19.165Z,98532.17
2019-05-09T03:10:49.144Z,98532.17
2019-05-09T03:13:19.232Z,98534.44
2019-05-09T03:15:50.418Z,98541.41
2019-05-09T03:18:19.564Z,98544.09
2019-05-09T03:21:10.374Z,98501.37
2019-05-09T03:23:39.603Z,98539.82
2019-05-09T03:26:10.407Z,98550.47
2019-05-09T03:28:53.566Z,98553.61
2019-05-09T03:31:23.338Z,98552.25
2019-05-09T03:33:52.467Z,98550.16
2019-05-09T03:36:21.583Z,98551.07
2019-05-09T03:38:50.676Z,98547.56
2019-05-09T03:41:19.780Z,98544.07
2019-05-09T03:43:48.890Z,98549.89
2019-05-09T03:46:31.035Z,98551.72
2019-05-09T03:49:00.952Z,98558.31
2019-05-09T03:51:30.088Z,98546.84
2019-05-09T03:53:59.217Z,98547.72
2019-05-09T03:56:33.149Z,98549.39
2019-05-09T03:59:02.259Z,98554.67
2019-05-09T04:01:31.377Z,98558.63
2019-05-09T04:04:00.511Z,98557.72
2019-05-09T04:06:29.918Z,98559.03
2019-05-09T04:08:59.064Z,98562.13
2019-05-09T04:11:28.202Z,98559.90
2019-05-09T04:14:01.954Z,98565.58
2019-05-09T04:16:31.097Z,98571.22
2019-05-09T04:19:00.211Z,98568.58
2019-05-09T04:21:29.343Z,98572.53
2019-05-09T04:23:58.682Z,98570.77
2019-05-09T04:26:57.446Z,98565.89
2019-05-09T04:29:28.422Z,98572.03
2019-05-09T04:31:57.593Z,98573.86
2019-05-09T04:34:27.510Z,98580.00
2019-05-09T04:36:57.581Z,98580.05
2019-05-09T04:39:28.336Z,98577.81
2019-05-09T04:42:03.423Z,98579.09
2019-05-09T04:44:33.973Z,98579.55
2019-05-09T04:47:03.784Z,98576.45
2019-05-09T04:49:39.284Z,98579.55
2019-05-09T04:52:04.039Z,98585.63
2019-05-09T04:54:33.155Z,98583.36
2019-05-09T04:57:02.281Z,98582.49
2019-05-09T04:59:31.388Z,98588.17
2019-05-09T05:02:31.678Z,98591.23
2019-05-09T05:05:00.877Z,98592.09
2019-05-09T05:07:30.027Z,98586.95
2019-05-09T05:09:59.164Z,98597.51
2019-05-09T05:12:28.336Z,98591.82
2019-05-09T05:14:58.097Z,98593.19
2019-05-09T05:17:28.276Z,98594.96
2019-05-09T05:19:58.785Z,98597.09
2019-05-09T05:22:33.721Z,98595.69
2019-05-09T05:25:04.330Z,98598.23
2019-05-09T05:27:33.451Z,98592.86
2019-05-09T05:30:02.546Z,98596.22
2019-05-09T05:33:02.923Z,98595.62
2019-05-09T05:35:48.475Z,98595.93
2019-05-09T05:38:17.793Z,98601.06
2019-05-09T05:40:49.693Z,98599.56
2019-05-09T05:43:17.870Z,98607.75
2019-05-09T05:45:58.456Z,98604.05
2019-05-09T05:48:29.784Z,98601.17
2019-05-09T05:50:58.948Z,98601.33
2019-05-09T05:53:28.088Z,98598.77
2019-05-09T05:55:58.062Z,98599.31
2019-05-09T05:58:28.179Z,98599.00
2019-05-09T06:00:58.876Z,98596.37
2019-05-09T06:03:28.405Z,98604.23
2019-05-09T06:05:58.498Z,98602.95
2019-05-09T06:08:27.981Z,98599.54
2019-05-09T06:10:57.714Z,98604.55
2019-05-09T06:13:27.582Z,98605.77
2019-05-09T06:15:58.658Z,98605.39
2019-05-09T06:18:27.952Z,98606.26
2019-05-09T06:20:58.343Z,98607.93
2019-05-09T06:23:28.326Z,98617.81
2019-05-09T06:25:58.750Z,98609.88
2019-05-09T06:28:28.330Z,98607.69
2019-05-09T06:30:58.531Z,98607.55
2019-05-09T06:33:28.608Z,98612.02
2019-05-09T06:35:58.894Z,98609.97
2019-05-09T06:38:28.463Z,98611.16
2019-05-09T06:40:58.210Z,98601.90
2019-05-09T06:43:29.788Z,98603.58
2019-05-09T06:46:20.916Z,98605.38
2019-05-09T06:48:50.084Z,98610.50
2019-05-09T06:51:21.355Z,98602.95
2019-05-09T06:53:51.680Z,98608.65
2019-05-09T06:56:20.811Z,98612.38
2019-05-09T06:58:49.960Z,98620.00
2019-05-09T07:01:44.064Z,98623.90
2019-05-09T07:04:19.692Z,98617.12
2019-05-09T07:06:52.704Z,98620.27
2019-05-09T07:09:27.830Z,98623.84
2019-05-09T07:11:55.609Z,98622.45
2019-05-09T07:14:43.628Z,98629.94
2019-05-09T07:17:12.769Z,98617.92
2019-05-09T07:19:43.923Z,98606.69
2019-05-09T07:22:28.063Z,98603.39
2019-05-09T07:25:10.472Z,98599.23
2019-05-09T07:27:39.062Z,98597.92
2019-05-09T07:30:19.397Z,98598.46
2019-05-09T07:33:00.935Z,98597.28
2019-05-09T07:35:30.031Z,98601.84
2019-05-09T07:37:59.179Z,98600.02
2019-05-09T07:40:30.728Z,98596.50
2019-05-09T07:42:59.221Z,98597.03
2019-05-09T07:45:28.348Z,98604.84
2019-05-09T07:47:58.363Z,98608.28
2019-05-09T07:50:27.926Z,98610.03
2019-05-09T07:52:58.144Z,98608.88
2019-05-09T07:55:27.621Z,98613.01
2019-05-09T07:57:59.156Z,98620.66
2019-05-09T08:00:34.416Z,98607.05
2019-05-09T08:03:03.521Z,98612.82
2019-05-09T08:05:32.825Z,98605.87
2019-05-09T08:08:01.959Z,98615.23
2019-05-09T08:10:33.205Z,98608.97
2019-05-09T08:13:01.981Z,98611.09
2019-05-09T08:15:31.097Z,98614.08
2019-05-09T08:18:00.285Z,98607.66
2019-05-09T08:20:29.431Z,98612.22
2019-05-09T08:23:01.873Z,98611.11
2019-05-09T08:25:29.430Z,98569.33
2019-05-09T08:27:59.010Z,98611.69
2019-05-09T08:30:35.326Z,98606.27
2019-05-09T08:32:59.870Z,98615.23
2019-05-09T08:35:29.302Z,98617.14
2019-05-09T08:37:58.641Z,98617.05
2019-05-09T08:40:28.564Z,98610.66
2019-05-09T08:42:59.207Z,98608.31
2019-05-09T08:45:31.314Z,98607.28
2019-05-09T08:47:59.303Z,98601.16
2019-05-09T08:50:38.662Z,98592.53
2019-05-09T08:53:08.184Z,98597.70
2019-05-09T08:56:58.159Z,98590.52
2019-05-09T08:59:27.700Z,98595.91
2019-05-09T09:02:12.258Z,98597.25
2019-05-09T09:04:29.438Z,98606.32
2019-05-09T09:06:58.813Z,98598.28
2019-05-09T09:09:28.630Z,98605.98
2019-05-09T09:11:58.459Z,98612.23
2019-05-09T09:14:28.039Z,98607.30
2019-05-09T09:16:57.699Z,98606.83
2019-05-09T09:19:28.056Z,98604.74
2019-05-09T09:22:00.475Z,98606.10
2019-05-09T09:24:28.487Z,98595.83
2019-05-09T09:26:57.788Z,98601.39
2019-05-09T09:29:28.395Z,98603.66
2019-05-09T09:31:57.818Z,98599.80
2019-05-09T09:34:29.842Z,98600.22
2019-05-09T09:37:02.990Z,98606.70
2019-05-09T09:39:31.266Z,98605.53
2019-05-09T09:41:59.879Z,98611.83
2019-05-09T09:44:29.106Z,98614.06
2019-05-09T09:46:58.357Z,98611.91
2019-05-09T09:49:29.308Z,98609.55
2019-05-09T09:51:58.500Z,98620.97
2019-05-09T09:54:28.227Z,98609.40
2019-05-09T09:56:58.485Z,98612.97
2019-05-09T10:02:27.914Z,98613.16
2019-05-09T10:04:57.350Z,98611.67
2019-05-09T10:07:27.922Z,98605.92
2019-05-09T10:09:58.382Z,98606.34
2019-05-09T10:12:28.584Z,98603.35
2019-05-09T10:15:08.354Z,98604.08
2019-05-09T10:18:07.482Z,98602.59
2019-05-09T10:20:44.352Z,98617.58
2019-05-09T10:23:18.800Z,98610.91
2019-05-09T10:25:44.534Z,98608.70
2019-05-09T10:28:13.694Z,98608.05
2019-05-09T10:30:42.809Z,98604.61
2019-05-09T10:33:12.057Z,98602.30
2019-05-09T10:35:41.179Z,98611.86
2019-05-09T10:38:10.363Z,98604.48
2019-05-09T10:40:40.398Z,98606.14
2019-05-09T10:43:36.862Z,98609.28
2019-05-09T10:46:19.276Z,98612.69
2019-05-09T10:48:58.431Z,98613.08
2019-05-09T10:51:26.772Z,98609.73
2019-05-09T10:53:58.497Z,98615.09
2019-05-09T10:56:28.017Z,98603.56
2019-05-09T10:58:58.422Z,98604.63
2019-05-09T11:01:29.525Z,98608.34
2019-05-09T11:03:59.287Z,98594.75
2019-05-09T11:06:29.003Z,98603.56
2019-05-09T11:08:58.794Z,98594.90
2019-05-09T11:11:28.588Z,98599.85
2019-05-09T11:13:58.959Z,98619.69
2019-05-09T11:16:42.340Z,98608.36
2019-05-09T11:18:59.168Z,98604.83
2019-05-09T11:21:28.959Z,98614.92
2019-05-09T11:23:58.705Z,98610.05
2019-05-09T11:26:28.757Z,98620.72
2019-05-09T11:28:58.746Z,98601.24
2019-05-09T11:31:29.620Z,98388.25
2019-05-09T11:33:59.129Z,98351.64
2019-05-09T11:36:28.249Z,98594.79
2019-05-09T11:39:00.360Z,98599.85
2019-05-09T11:41:29.695Z,98589.84
2019-05-09T11:43:59.719Z,98596.53
2019-05-09T11:46:29.124Z,98580.88
2019-05-09T11:48:58.773Z,98586.40
2019-05-09T11:51:29.372Z,98587.97
2019-05-09T11:53:59.595Z,98603.30
2019-05-09T11:56:28.807Z,98597.67
2019-05-09T11:58:58.198Z,98595.38
2019-05-09T12:01:29.326Z,98603.21
2019-05-09T12:03:58.267Z,98592.63
2019-05-09T12:06:28.997Z,98590.28
2019-05-09T12:08:59.067Z,98603.94
2019-05-09T12:11:28.912Z,98601.69
2019-05-09T12:13:58.487Z,98599.78
2019-05-09T12:16:28.081Z,98608.14
2019-05-09T12:18:58.344Z,98602.06
2019-05-09T12:21:28.494Z,98611.98
2019-05-09T12:23:58.565Z,98597.30
2019-05-09T12:26:29.106Z,98596.49
2019-05-09T12:28:58.804Z,98600.21
2019-05-09T12:31:28.857Z,98597.55
2019-05-09T12:33:59.403Z,98599.68
2019-05-09T12:36:28.994Z,98604.16
2019-05-09T12:38:59.108Z,98606.56
2019-05-09T12:41:31.593Z,98605.59
2019-05-09T12:43:59.573Z,98592.72
2019-05-09T12:46:28.746Z,98603.21
2019-05-09T12:48:59.125Z,98609.28
2019-05-09T12:51:28.758Z,98610.80
2019-05-09T12:53:58.201Z,98607.77
2019-05-09T12:56:28.494Z,98606.41
2019-05-09T12:58:58.149Z,98614.22
2019-05-09T13:01:27.482Z,98610.91
2019-05-09T13:03:58.257Z,98615.20
2019-05-09T13:06:29.504Z,98607.67
2019-05-09T13:08:58.872Z,98614.64
2019-05-09T13:11:28.220Z,98606.52
2019-05-09T13:13:57.422Z,98616.38
2019-05-09T13:16:45.475Z,98614.73
2019-05-09T13:19:07.586Z,98611.58
2019-05-09T13:21:38.984Z,98613.66
2019-05-09T13:24:08.330Z,98611.57
2019-05-09T13:26:38.579Z,98608.90
2019-05-09T13:29:08.269Z,98608.43
2019-05-09T13:31:39.281Z,98615.03
2019-05-09T13:34:08.370Z,98614.64
2019-05-09T13:36:37.522Z,98615.98
2019-05-09T13:39:09.609Z,98620.16
2019-05-09T13:41:39.699Z,98625.17
2019-05-09T13:44:13.715Z,98628.66
2019-05-09T13:46:39.766Z,98626.21
2019-05-09T13:49:14.821Z,98622.56
2019-05-09T13:51:48.504Z,98625.23
2019-05-09T13:54:10.734Z,98622.95
2019-05-09T13:56:39.885Z,98635.35
2019-05-09T13:59:09.023Z,98631.70
2019-05-09T14:01:38.304Z,98640.47
2019-05-09T14:04:08.089Z,98633.58
2019-05-09T14:06:38.690Z,98634.41
2019-05-09T14:09:10.278Z,98633.20
2019-05-09T14:11:39.915Z,98640.91
2019-05-09T14:14:09.054Z,98637.07
2019-05-09T14:16:39.098Z,98635.00
2019-05-09T14:19:29.979Z,98646.23
2019-05-09T14:21:40.074Z,98639.91
2019-05-09T14:24:14.375Z,98640.95
2019-05-09T14:26:40.384Z,98640.98
2019-05-09T14:29:12.853Z,98638.88
2019-05-09T14:31:40.669Z,98645.33
2019-05-09T14:34:09.932Z,98650.27
2019-05-09T14:36:44.442Z,98647.13
2019-05-09T14:39:10.730Z,98650.45
2019-05-09T14:41:40.069Z,98649.41
2019-05-09T14:44:09.638Z,98656.98
2019-05-09T14:46:40.595Z,98658.59
2019-05-09T14:49:09.973Z,98653.46
2019-05-09T14:51:39.208Z,98655.86
2019-05-09T14:54:08.618Z,98651.05
2019-05-09T14:56:41.796Z,98586.95
2019-05-09T14:59:09.753Z,98648.03
2019-05-09T15:01:43.626Z,98663.62
2019-05-09T15:04:10.251Z,98667.48
2019-05-09T15:06:39.909Z,98665.84
2019-05-09T15:09:09.511Z,98664.43
2019-05-09T15:11:39.776Z,98664.28
2019-05-09T15:14:09.618Z,98669.78
2019-05-09T15:16:39.447Z,98675.35
2019-05-09T15:19:11.245Z,98410.89
2019-05-09T15:21:40.765Z,98676.41
2019-05-09T15:24:09.981Z,98672.97
2019-05-09T15:26:39.323Z,98678.16
2019-05-09T15:29:08.533Z,98687.46
2019-05-09T15:31:39.259Z,98680.25
2019-05-09T15:34:10.236Z,98678.38
2019-05-09T15:36:39.556Z,98682.14
2019-05-09T15:39:08.905Z,98677.73
2019-05-09T15:41:38.679Z,98676.75
2019-05-09T15:44:08.625Z,98681.22
2019-05-09T15:46:48.573Z,98684.47
2019-05-09T15:49:18.437Z,98672.11
2019-05-09T15:51:47.940Z,98676.42
2019-05-09T15:54:17.896Z,98677.34
2019-05-09T15:56:48.358Z,98684.96
2019-05-09T15:59:18.438Z,98612.03
2019-05-09T16:01:49.227Z,98691.77
2019-05-09T16:04:18.619Z,98691.70
2019-05-09T16:06:50.393Z,98692.57
2019-05-09T16:09:18.681Z,98682.27
2019-05-09T16:11:48.505Z,98692.10
2019-05-09T16:14:18.598Z,98686.69
2019-05-09T16:16:48.053Z,98688.71
2019-05-09T16:19:17.291Z,98688.33
2019-05-09T16:21:47.736Z,98690.68
2019-05-09T16:24:18.739Z,98690.44
2019-05-09T16:26:48.741Z,98683.86
2019-05-09T16:29:18.209Z,98687.72
2019-05-09T16:31:48.094Z,98695.45
2019-05-09T16:34:17.982Z,98698.78
2019-05-09T16:36:48.178Z,98699.73
2019-05-09T16:39:18.079Z,98698.48
2019-05-09T16:41:48.402Z,98706.39
2019-05-09T16:44:18.616Z,98696.28
2019-05-09T16:46:48.592Z,98701.38
2019-05-09T16:49:19.866Z,98697.30
2019-05-09T16:51:48.892Z,98700.31
2019-05-09T16:54:18.347Z,98696.91
2019-05-09T16:56:47.588Z,98693.94
2019-05-09T16:59:18.890Z,98697.93
2019-05-09T17:01:50.345Z,98701.38
2019-05-09T17:04:19.406Z,98711.01
2019-05-09T17:06:49.720Z,98712.73
2019-05-09T17:09:19.102Z,98709.36
2019-05-09T17:11:48.358Z,98707.75
2019-05-09T17:14:19.250Z,98715.39
2019-05-09T17:16:53.053Z,98714.60
2019-05-09T17:19:22.019Z,98715.54
2019-05-09T17:22:07.629Z,98720.01
2019-05-09T17:24:38.022Z,98717.58
2019-05-09T17:27:08.688Z,98719.77
2019-05-09T17:29:38.451Z,98718.98
2019-05-09T17:32:07.936Z,98724.46
2019-05-09T17:34:38.089Z,98727.59
2019-05-09T17:37:08.026Z,98650.00
2019-05-09T17:39:38.611Z,98732.94
2019-05-09T17:42:07.878Z,98731.13
2019-05-09T17:44:36.994Z,98742.01
2019-05-09T17:47:08.286Z,98740.28
2019-05-09T17:49:44.246Z,98742.72
2019-05-09T17:52:13.639Z,98624.80
2019-05-09T17:54:43.059Z,98746.77
2019-05-09T17:57:12.250Z,98751.02
2019-05-09T17:59:41.426Z,98744.57
2019-05-09T18:02:10.585Z,98751.94
2019-05-09T18:04:39.806Z,98750.68
2019-05-09T18:07:09.042Z,98753.89
2019-05-09T18:09:38.230Z,98758.06
2019-05-09T18:12:08.471Z,98755.55
2019-05-09T18:14:39.412Z,98754.52
2019-05-09T18:17:08.730Z,98752.95
2019-05-09T18:19:40.821Z,98755.61
2019-05-09T18:25:27.765Z,98759.83
2019-05-09T18:27:57.507Z,98765.80
2019-05-09T18:30:28.892Z,98765.25
2019-05-09T18:33:35.246Z,98762.48
2019-05-09T18:36:04.401Z,98769.06
2019-05-09T18:38:34.677Z,98766.41
2019-05-09T18:41:07.135Z,98770.71
2019-05-09T18:43:34.929Z,98775.17
2019-05-09T18:46:04.058Z,98776.11
2019-05-09T18:48:33.183Z,98777.98
2019-05-09T18:51:02.358Z,98784.88
2019-05-09T18:53:31.554Z,98788.08
2019-05-09T18:56:00.721Z,98784.86
2019-05-09T18:58:29.869Z,98789.92
2019-05-09T19:00:59.001Z,98789.78
2019-05-09T19:03:28.209Z,98791.33
2019-05-09T19:05:57.351Z,98793.08
2019-05-09T19:08:26.484Z,98791.03
2019-05-09T19:10:55.660Z,98798.86
2019-05-09T19:13:24.783Z,98801.27
2019-05-09T19:16:19.221Z,98804.59
2019-05-09T19:19:22.519Z,98810.13
2019-05-09T19:21:57.753Z,98811.77
2019-05-09T19:24:26.998Z,98822.99
2019-05-09T19:26:56.187Z,98822.41
2019-05-09T19:29:25.326Z,98828.81
2019-05-09T19:31:54.659Z,98841.14
2019-05-09T19:34:23.848Z,98841.08
2019-05-09T19:36:52.993Z,98839.25
2019-05-09T19:39:22.935Z,98839.18
2019-05-09T19:41:52.139Z,98694.83
2019-05-09T19:44:21.252Z,98844.84
2019-05-09T19:46:50.471Z,98844.63
2019-05-09T19:49:19.708Z,98849.20
2019-05-09T19:51:48.912Z,98854.80
2019-05-09T19:54:18.222Z,98858.22
2019-05-09T19:56:47.471Z,98859.89
2019-05-09T19:59:16.596Z,98863.25
2019-05-09T20:01:45.735Z,98866.73
2019-05-09T20:04:14.895Z,98868.92
2019-05-09T20:06:44.003Z,98866.63
2019-05-09T20:09:22.388Z,98873.06
2019-05-09T20:11:58.182Z,98875.05
2019-05-09T20:14:30.873Z,98882.38
2019-05-09T20:17:00.024Z,98883.04
2019-05-09T20:19:29.169Z,98883.61
2019-05-09T20:21:58.359Z,98892.31
2019-05-09T20:24:27.518Z,98895.19
2019-05-09T20:26:56.697Z,98899.42
2019-05-09T20:29:25.858Z,98906.67
2019-05-09T20:31:55.146Z,98908.27
2019-05-09T20:34:24.300Z,98911.12
2019-05-09T20:36:53.487Z,98916.12
2019-05-09T20:39:22.818Z,98916.73
2019-05-09T20:41:52.114Z,98920.92
2019-05-09T20:44:21.439Z,98923.81
2019-05-09T20:46:50.780Z,98930.09
2019-05-09T20:49:20.183Z,98929.33
2019-05-09T20:51:49.608Z,98681.91
2019-05-09T20:54:21.386Z,98928.97
2019-05-09T20:56:50.125Z,98924.13
2019-05-09T20:59:19.489Z,98927.70
2019-05-09T21:01:48.788Z,98931.27
2019-05-09T21:04:18.148Z,98935.39
2019-05-09T21:06:47.502Z,98940.56
2019-05-09T21:09:16.843Z,98942.04
2019-05-09T21:11:46.199Z,98940.86
2019-05-09T21:14:15.516Z,98938.73
2019-05-09T21:16:44.838Z,98943.39
2019-05-09T21:19:14.155Z,98939.97
2019-05-09T21:21:43.466Z,98937.89
2019-05-09T21:24:12.914Z,98942.86
2019-05-09T21:26:42.506Z,98947.52
2019-05-09T21:29:11.853Z,98949.41
2019-05-09T21:31:41.172Z,98950.88
2019-05-09T21:34:10.495Z,98957.63
2019-05-09T21:36:39.638Z,98956.89
2019-05-09T21:39:08.794Z,98963.14
2019-05-09T21:41:37.970Z,98828.64
2019-05-09T21:44:07.260Z,98966.20
2019-05-09T21:46:36.406Z,98967.94
2019-05-09T21:49:05.535Z,98967.56
2019-05-09T21:51:34.687Z,98975.09
2019-05-09T21:54:03.806Z,98975.19
2019-05-09T21:56:32.969Z,98973.00
2019-05-09T21:59:02.136Z,98980.47
2019-05-09T22:01:31.317Z,98985.31
2019-05-09T22:04:00.535Z,98991.47
2019-05-09T22:06:29.776Z,98992.42
2019-05-09T22:08:58.924Z,98995.48
2019-05-09T22:11:28.052Z,98995.11
2019-05-09T22:13:57.211Z,99010.56
2019-05-09T22:16:26.383Z,99008.38
2019-05-09T22:18:55.545Z,99002.27
2019-05-09T22:21:24.688Z,99003.27
2019-05-09T22:23:56.735Z,99019.67
2019-05-09T22:26:24.691Z,99021.08
2019-05-09T22:28:53.958Z,99017.20
2019-05-09T22:31:23.082Z,99022.58
2019-05-09T22:33:52.246Z,99022.08
2019-05-09T22:36:21.374Z,99021.75
2019-05-09T22:38:50.529Z,99021.39
2019-05-09T22:41:19.691Z,99017.96
2019-05-09T22:43:48.803Z,99024.23
2019-05-09T22:46:17.934Z,99023.45
2019-05-09T22:48:47.096Z,99027.05
2019-05-09T22:51:16.364Z,99028.13
2019-05-09T22:53:45.488Z,99032.63
2019-05-09T22:56:14.669Z,99029.69
2019-05-09T22:58:43.755Z,99032.83
2019-05-09T23:01:12.886Z,99039.84
2019-05-09T23:03:42.050Z,99042.45
2019-05-09T23:06:11.187Z,99042.78
2019-05-09T23:08:40.308Z,99043.70
2019-05-09T23:11:09.456Z,99049.05
2019-05-09T23:13:53.857Z,99052.15
2019-05-09T23:16:25.161Z,99051.73
2019-05-09T23:18:55.024Z,99049.14
2019-05-09T23:21:26.117Z,99046.95
2019-05-09T23:24:01.283Z,99050.00
2019-05-09T23:26:30.456Z,99041.20
2019-05-09T23:28:59.675Z,99044.67
2019-05-09T23:31:53.789Z,99043.81
2019-05-09T23:34:22.929Z,98875.80
2019-05-09T23:36:52.069Z,99047.94
2019-05-09T23:39:26.058Z,99051.16
2019-05-09T23:41:55.176Z,99046.78
2019-05-09T23:44:25.084Z,99052.97
2019-05-09T23:46:54.215Z,99047.31
2019-05-09T23:49:23.402Z,99049.99
2019-05-09T23:51:52.561Z,99046.03
2019-05-09T23:54:46.661Z,99054.38
2019-05-09T23:57:29.263Z,99052.14
